Time;durP1;ratioP1;P1;durP2;ratioP2;P2;SDS_P1;SDS_P2;PMS_P1;PMS_P2;Temp;Humidity;BMP_temperature;BMP_pressure;BME280_temperature;BME280_humidity;BME280_pressure;Samples;Min_cycle;Max_cycle;Signal;HPM_P1;HPM_P2
2021/12/14 00:01:48;;;;;;;16.33;13.00;;;8.30;99.90;;;;;;5063191;28;20102;-86
2021/12/14 00:04:21;;;;;;;27.45;14.68;;;8.40;99.90;;;;;;5071364;28;20433;-80
2021/12/14 00:06:49;;;;;;;22.48;13.90;;;8.40;99.90;;;;;;5080689;28;20405;-88
2021/12/14 00:09:27;;;;;;;19.85;12.95;;;8.40;99.90;;;;;;5086404;28;20046;-78
2021/12/14 00:12:13;;;;;;;19.05;12.68;;;8.40;99.90;;;;;;5057444;28;20436;-87
2021/12/14 00:17:12;;;;;;;20.53;15.87;;;8.40;99.90;;;;;;5071277;28;20053;-87
2021/12/14 00:19:38;;;;;;;18.42;12.70;;;8.40;99.90;;;;;;5088779;28;20309;-87
2021/12/14 00:22:19;;;;;;;18.95;12.75;;;8.40;99.90;;;;;;5057910;28;20106;-90
2021/12/14 00:24:45;;;;;;;18.92;14.43;;;8.40;99.90;;;;;;5092085;28;20493;-86
2021/12/14 00:27:12;;;;;;;20.33;12.35;;;8.30;99.90;;;;;;5090904;28;20038;-88
2021/12/14 00:29:43;;;;;;;20.20;12.75;;;8.40;99.90;;;;;;5081437;28;20072;-88
2021/12/14 00:32:17;;;;;;;22.27;13.88;;;8.40;99.90;;;;;;5078814;28;20504;-87
2021/12/14 00:34:44;;;;;;;16.20;11.75;;;8.40;99.90;;;;;;5056295;28;20063;-79
2021/12/14 00:37:17;;;;;;;19.35;13.65;;;8.40;99.90;;;;;;5073624;28;20346;-88
2021/12/14 00:39:44;;;;;;;18.42;13.15;;;8.40;99.90;;;;;;5072707;28;20056;-83
2021/12/14 00:42:10;;;;;;;18.70;14.00;;;8.40;99.90;;;;;;5092866;28;20036;-84
2021/12/14 00:44:36;;;;;;;18.75;13.43;;;8.40;99.90;;;;;;5092188;28;20446;-87
2021/12/14 00:47:04;;;;;;;31.63;15.07;;;8.40;99.90;;;;;;5075932;28;20565;-80
2021/12/14 00:49:30;;;;;;;18.00;13.50;;;8.30;99.90;;;;;;5074017;28;20111;-86
2021/12/14 00:51:56;;;;;;;21.95;16.05;;;8.30;99.90;;;;;;5068775;28;20045;-87
2021/12/14 00:54:24;;;;;;;15.98;13.32;;;8.30;99.90;;;;;;5082385;28;20094;-83
2021/12/14 00:56:51;;;;;;;16.20;13.85;;;8.30;99.90;;;;;;5085487;28;20041;-85
2021/12/14 00:59:19;;;;;;;19.77;14.73;;;8.30;99.90;;;;;;5086971;28;20066;-86
2021/12/14 01:01:57;;;;;;;22.45;12.88;;;8.30;99.90;;;;;;5090970;28;20089;-86
2021/12/14 01:04:40;;;;;;;20.30;14.18;;;8.30;99.90;;;;;;5093432;28;20054;-85
2021/12/14 01:07:08;;;;;;;20.55;13.98;;;8.30;99.90;;;;;;5093379;28;20036;-84
2021/12/14 01:09:37;;;;;;;17.70;13.52;;;8.20;99.90;;;;;;5092326;28;20160;-86
2021/12/14 01:12:10;;;;;;;24.35;17.67;;;8.20;99.90;;;;;;5069149;28;20052;-85
2021/12/14 01:15:12;;;;;;;19.35;15.35;;;8.20;99.90;;;;;;5084546;28;20048;-86
2021/12/14 01:17:53;;;;;;;16.90;14.73;;;8.20;99.90;;;;;;5103550;28;20119;-86
2021/12/14 01:20:19;;;;;;;20.80;15.73;;;8.20;99.90;;;;;;5079494;28;20056;-86
2021/12/14 01:22:47;;;;;;;23.77;16.55;;;8.20;99.90;;;;;;5096630;28;20046;-86
2021/12/14 01:25:31;;;;;;;21.23;14.40;;;8.20;99.90;;;;;;5110066;28;20044;-79
2021/12/14 01:28:21;;;;;;;22.80;15.57;;;8.20;99.90;;;;;;5093232;28;20044;-83
2021/12/14 01:31:08;;;;;;;20.90;15.50;;;8.20;99.90;;;;;;5076002;28;20425;-86
2021/12/14 01:33:36;;;;;;;21.67;16.65;;;8.20;99.90;;;;;;5074487;28;20068;-86
2021/12/14 01:36:09;;;;;;;21.80;15.65;;;8.20;99.90;;;;;;5075115;28;20087;-79
2021/12/14 01:38:46;;;;;;;22.05;14.85;;;8.20;99.90;;;;;;5093677;28;20040;-86
2021/12/14 01:41:14;;;;;;;19.77;15.10;;;8.20;99.90;;;;;;5075433;28;20044;-85
2021/12/14 01:44:06;;;;;;;22.42;17.27;;;8.20;99.90;;;;;;5092989;28;20038;-84
2021/12/14 01:46:39;;;;;;;19.77;15.00;;;8.20;99.90;;;;;;5079601;28;20076;-90
2021/12/14 01:49:09;;;;;;;22.33;16.90;;;8.20;99.90;;;;;;5087403;28;20064;-89
2021/12/14 01:51:38;;;;;;;22.80;17.00;;;8.20;99.90;;;;;;5085256;28;20094;-87
2021/12/14 01:54:06;;;;;;;26.60;17.60;;;8.20;99.90;;;;;;5091719;28;20384;-85
2021/12/14 01:56:32;;;;;;;22.63;17.48;;;8.20;99.90;;;;;;5084657;28;20053;-87
2021/12/14 01:59:14;;;;;;;19.85;16.63;;;8.20;99.90;;;;;;5060635;28;20132;-88
2021/12/14 02:01:55;;;;;;;25.15;18.40;;;8.20;99.90;;;;;;5080371;28;20036;-88
2021/12/14 02:04:24;;;;;;;23.73;15.68;;;8.20;99.90;;;;;;5074526;28;20056;-87
2021/12/14 02:07:00;;;;;;;20.27;15.40;;;8.20;99.90;;;;;;5083231;28;20044;-87
2021/12/14 02:09:29;;;;;;;21.63;16.77;;;8.20;99.90;;;;;;5084936;28;20109;-88
2021/12/14 02:11:58;;;;;;;20.75;17.00;;;8.20;99.90;;;;;;5078769;28;20075;-88
2021/12/14 02:14:26;;;;;;;21.52;15.73;;;8.20;99.90;;;;;;5085733;28;20091;-87
2021/12/14 02:16:58;;;;;;;26.17;17.77;;;8.20;99.90;;;;;;5103410;28;20036;-87
2021/12/14 02:19:25;;;;;;;24.52;17.40;;;8.20;99.90;;;;;;5091932;28;20051;-88
2021/12/14 02:21:52;;;;;;;27.35;18.90;;;8.20;99.90;;;;;;5063718;28;20040;-88
2021/12/14 02:24:22;;;;;;;22.33;18.45;;;8.10;99.90;;;;;;5082207;28;20040;-89
2021/12/14 02:26:50;;;;;;;26.42;19.65;;;8.20;99.90;;;;;;5094457;28;20142;-88
2021/12/14 02:29:25;;;;;;;25.30;18.42;;;8.20;99.90;;;;;;5072595;28;20061;-84
2021/12/14 02:31:59;;;;;;;23.02;18.38;;;8.20;99.90;;;;;;5077690;28;20048;-88
2021/12/14 02:34:25;;;;;;;26.17;20.17;;;8.20;99.90;;;;;;5074393;28;20044;-89
2021/12/14 02:36:51;;;;;;;22.30;18.65;;;8.20;99.90;;;;;;5084603;28;20047;-87
2021/12/14 02:39:45;;;;;;;27.23;19.55;;;8.10;99.90;;;;;;5089112;28;20067;-88
2021/12/14 02:42:12;;;;;;;26.27;20.55;;;8.10;99.90;;;;;;5093560;28;20052;-89
2021/12/14 02:44:38;;;;;;;24.08;19.42;;;8.10;99.90;;;;;;5076321;28;20051;-89
2021/12/14 02:47:09;;;;;;;30.48;20.63;;;8.20;99.90;;;;;;5088731;28;20044;-88
2021/12/14 02:49:37;;;;;;;22.65;18.08;;;8.10;99.90;;;;;;5092565;28;20040;-88
2021/12/14 02:52:09;;;;;;;26.77;21.30;;;8.10;99.90;;;;;;5090913;28;20040;-88
2021/12/14 02:54:58;;;;;;;28.13;21.23;;;8.10;99.90;;;;;;5038607;28;20044;-89
2021/12/14 02:57:27;;;;;;;26.85;21.27;;;8.10;99.90;;;;;;5074732;28;20093;-89
2021/12/14 02:59:55;;;;;;;29.45;22.70;;;8.20;99.90;;;;;;5091198;28;20087;-89
2021/12/14 03:02:32;;;;;;;26.23;19.63;;;8.20;99.90;;;;;;5085040;28;20039;-88
2021/12/14 03:05:11;;;;;;;28.08;22.80;;;8.10;99.90;;;;;;5074975;28;20115;-88
2021/12/14 03:07:43;;;;;;;34.72;22.85;;;8.10;99.90;;;;;;5079616;28;20075;-89
2021/12/14 03:12:52;;;;;;;29.85;22.17;;;8.10;99.90;;;;;;5086988;28;20128;-84
2021/12/14 03:15:24;;;;;;;31.02;21.65;;;8.10;99.90;;;;;;5078757;28;20558;-86
2021/12/14 03:17:57;;;;;;;30.85;23.45;;;8.10;99.90;;;;;;5079135;28;20457;-88
2021/12/14 03:20:25;;;;;;;29.63;22.52;;;8.10;99.90;;;;;;5071583;28;20532;-89
2021/12/14 03:23:00;;;;;;;31.42;23.73;;;8.10;99.90;;;;;;5086682;28;20044;-87
2021/12/14 03:25:27;;;;;;;30.88;24.08;;;8.10;99.90;;;;;;5084935;28;20040;-87
2021/12/14 03:27:54;;;;;;;31.10;24.98;;;8.10;99.90;;;;;;5077605;28;20174;-80
2021/12/14 03:30:33;;;;;;;31.45;23.85;;;8.00;99.90;;;;;;5081820;28;20068;-88
2021/12/14 03:33:16;;;;;;;31.17;24.60;;;8.10;99.90;;;;;;5090172;28;20498;-88
2021/12/14 03:35:47;;;;;;;30.55;21.17;;;8.10;99.90;;;;;;5092520;28;20058;-87
2021/12/14 03:38:17;;;;;;;;;;;8.10;99.90;;;;;;5094116;28;20419;-75
2021/12/14 03:40:44;;;;;;;32.63;22.58;;;8.10;99.90;;;;;;5092179;28;19908;-75
2021/12/14 03:43:12;;;;;;;36.13;27.67;;;8.10;99.90;;;;;;5114520;28;20032;-86
2021/12/14 03:45:38;;;;;;;30.85;23.98;;;8.10;99.90;;;;;;5099075;28;20044;-89
2021/12/14 03:48:05;;;;;;;31.95;24.50;;;8.10;99.90;;;;;;5080350;28;20053;-87
2021/12/14 03:50:36;;;;;;;33.92;24.23;;;8.10;99.90;;;;;;5074007;28;20075;-87
2021/12/14 03:53:03;;;;;;;29.27;24.05;;;8.10;99.90;;;;;;5078149;28;20052;-78
2021/12/14 03:55:36;;;;;;;32.47;25.90;;;8.10;99.90;;;;;;5087604;28;20068;-91
2021/12/14 03:58:14;;;;;;;30.98;22.85;;;8.10;99.90;;;;;;5074760;28;20123;-78
2021/12/14 04:00:45;;;;;;;30.30;23.10;;;8.00;99.90;;;;;;5056370;28;20119;-90
2021/12/14 04:03:14;;;;;;;32.03;25.15;;;8.00;99.90;;;;;;5081095;28;20040;-89
2021/12/14 04:05:41;;;;;;;34.73;26.67;;;8.10;99.90;;;;;;5092469;28;20052;-88
2021/12/14 04:08:08;;;;;;;35.17;25.90;;;8.10;99.90;;;;;;5091586;28;20629;-89
2021/12/14 04:10:37;;;;;;;32.80;24.33;;;8.00;99.90;;;;;;5090277;28;20048;-87
2021/12/14 04:13:05;;;;;;;35.67;23.60;;;8.00;99.90;;;;;;5093301;28;20048;-87
2021/12/14 04:15:31;;;;;;;32.20;25.63;;;8.00;99.90;;;;;;5091720;28;20101;-86
2021/12/14 04:17:57;;;;;;;30.02;22.50;;;8.10;99.90;;;;;;5056803;28;20040;-90
2021/12/14 04:20:37;;;;;;;34.60;24.20;;;8.00;99.90;;;;;;5062572;28;20041;-86
2021/12/14 04:23:12;;;;;;;34.33;26.07;;;8.00;99.90;;;;;;5090092;28;20040;-87
2021/12/14 04:25:40;;;;;;;33.90;25.05;;;8.00;99.90;;;;;;5075482;28;20309;-88
2021/12/14 04:28:09;;;;;;;32.92;25.55;;;8.10;99.90;;;;;;5076270;28;20116;-88
2021/12/14 04:30:36;;;;;;;32.47;24.42;;;8.00;99.90;;;;;;5071194;28;20072;-88
2021/12/14 04:33:05;;;;;;;31.58;24.58;;;8.00;99.90;;;;;;5086792;28;20410;-87
2021/12/14 04:35:37;;;;;;;31.83;23.42;;;8.00;99.90;;;;;;5076998;28;20587;-88
2021/12/14 04:38:10;;;;;;;34.97;25.15;;;8.10;99.90;;;;;;5082077;28;20132;-88
2021/12/14 04:51:57;;;;;;;33.53;25.10;;;8.00;99.90;;;;;;5084085;28;20039;-90
2021/12/14 04:54:21;;;;;;;38.90;27.13;;;7.90;99.90;;;;;;5078523;28;20052;-84
2021/12/14 04:56:47;;;;;;;32.72;25.67;;;7.90;99.90;;;;;;5098578;28;20055;-86
2021/12/14 04:59:22;;;;;;;37.60;27.80;;;7.90;99.90;;;;;;5116675;28;20028;-74
2021/12/14 05:01:50;;;;;;;34.38;24.92;;;8.00;99.90;;;;;;5097325;28;20024;-85
2021/12/14 05:04:21;;;;;;;40.53;28.98;;;8.00;99.90;;;;;;5114412;28;20122;-79
2021/12/14 05:06:49;;;;;;;36.83;28.10;;;8.00;99.90;;;;;;5112845;28;20043;-83
2021/12/14 05:12:10;;;;;;;37.75;26.13;;;8.00;99.90;;;;;;5103319;28;20025;-83
2021/12/14 05:14:38;;;;;;;33.67;26.77;;;7.90;99.90;;;;;;5102032;28;20067;-86
2021/12/14 05:17:09;;;;;;;31.70;26.17;;;7.90;99.90;;;;;;5103120;28;20104;-78
2021/12/14 05:19:37;;;;;;;34.75;27.67;;;8.00;99.90;;;;;;5082270;28;20062;-86
2021/12/14 05:22:08;;;;;;;36.35;27.38;;;8.00;99.90;;;;;;5099389;28;20028;-79
2021/12/14 05:24:37;;;;;;;33.95;26.88;;;7.90;99.90;;;;;;5079006;28;20497;-88
2021/12/14 05:27:06;;;;;;;37.40;29.48;;;8.00;99.90;;;;;;5083186;28;20087;-76
2021/12/14 05:29:32;;;;;;;37.83;28.65;;;7.90;99.90;;;;;;5087610;28;20056;-86
2021/12/14 05:32:02;;;;;;;37.35;28.02;;;7.90;99.90;;;;;;5083372;28;20040;-85
2021/12/14 05:34:29;;;;;;;42.92;29.35;;;7.90;99.90;;;;;;5103411;28;20435;-85
2021/12/14 05:36:55;;;;;;;38.25;27.63;;;7.80;99.90;;;;;;5098947;28;20044;-84
2021/12/14 05:44:40;;;;;;;41.92;33.35;;;7.90;99.90;;;;;;5101895;28;20541;-88
2021/12/14 05:47:11;;;;;;;39.17;28.58;;;7.90;99.90;;;;;;5097401;28;20043;-88
2021/12/14 05:49:40;;;;;;;41.72;32.63;;;7.90;99.90;;;;;;5102975;28;20117;-86
2021/12/14 05:52:10;;;;;;;44.65;31.60;;;7.90;99.90;;;;;;5088361;28;20067;-85
2021/12/14 05:54:36;;;;;;;;;;;7.90;99.90;;;;;;5102276;28;20040;-87
2021/12/14 05:57:04;;;;;;;41.65;32.15;;;7.90;99.90;;;;;;5095612;28;20130;-78
2021/12/14 05:59:33;;;;;;;42.90;31.40;;;7.90;99.90;;;;;;5074498;28;20498;-85
2021/12/14 06:02:00;;;;;;;50.33;34.60;;;7.90;99.90;;;;;;5084004;28;20036;-85
2021/12/14 06:04:32;;;;;;;48.25;35.53;;;7.90;99.90;;;;;;5094291;28;20044;-88
2021/12/14 06:06:57;;;;;;;54.38;34.72;;;7.90;99.90;;;;;;5073113;28;20424;-84
2021/12/14 06:09:30;;;;;;;52.90;37.70;;;7.80;99.90;;;;;;5093293;28;20113;-85
2021/12/14 06:12:05;;;;;;;50.08;33.63;;;7.80;99.90;;;;;;5064874;28;20040;-86
2021/12/14 06:14:31;;;;;;;83.38;39.22;;;7.80;99.90;;;;;;5052383;28;1052592;-88
2021/12/14 06:17:00;;;;;;;48.40;36.60;;;7.80;99.90;;;;;;5092344;28;20044;-86
2021/12/14 06:19:29;;;;;;;55.30;37.05;;;7.80;99.90;;;;;;5084891;28;20048;-86
2021/12/14 06:22:12;;;;;;;50.15;33.58;;;7.80;99.90;;;;;;5073347;28;20515;-83
2021/12/14 06:24:44;;;;;;;52.28;36.55;;;7.80;99.90;;;;;;5065905;28;20558;-81
2021/12/14 06:27:13;;;;;;;51.72;36.30;;;7.80;99.90;;;;;;5072392;28;20059;-82
2021/12/14 06:29:46;;;;;;;47.22;34.15;;;7.80;99.90;;;;;;5053387;28;20501;-83
2021/12/14 06:32:13;;;;;;;56.58;37.05;;;7.80;99.90;;;;;;5081840;28;20074;-82
2021/12/14 06:34:48;;;;;;;56.70;39.55;;;7.80;99.90;;;;;;5072078;28;20494;-83
2021/12/14 06:38:05;;;;;;;56.63;37.75;;;7.80;99.90;;;;;;5075044;28;20044;-79
2021/12/14 06:40:32;;;;;;;61.45;39.22;;;7.80;99.90;;;;;;5079512;28;20057;-82
2021/12/14 06:43:01;;;;;;;58.75;39.22;;;7.80;99.90;;;;;;5071938;28;20348;-81
2021/12/14 06:45:34;;;;;;;61.15;40.60;;;7.80;99.90;;;;;;5071850;28;20051;-80
2021/12/14 06:48:20;;;;;;;60.33;39.03;;;7.80;99.90;;;;;;5063466;28;20048;-81
2021/12/14 06:50:54;;;;;;;61.85;37.92;;;7.80;99.90;;;;;;5053990;28;20048;-81
2021/12/14 06:53:21;;;;;;;64.38;38.70;;;7.80;99.90;;;;;;5051825;28;20563;-80
2021/12/14 06:55:51;;;;;;;62.90;41.20;;;7.90;99.90;;;;;;5052282;28;20058;-80
2021/12/14 06:58:20;;;;;;;62.55;40.47;;;7.80;99.90;;;;;;5052253;28;20090;-80
2021/12/14 07:00:58;;;;;;;66.45;41.40;;;7.80;99.90;;;;;;5055416;28;20121;-80
2021/12/14 07:03:39;;;;;;;68.32;43.22;;;7.80;99.90;;;;;;5057789;28;20044;-80
2021/12/14 07:06:06;;;;;;;65.18;41.05;;;7.80;99.90;;;;;;5072444;28;20379;-80
2021/12/14 07:08:32;;;;;;;64.70;42.42;;;7.90;99.90;;;;;;5050410;28;20084;-80
2021/12/14 07:10:58;;;;;;;64.32;42.50;;;7.80;99.90;;;;;;5085082;28;20040;-79
2021/12/14 07:13:34;;;;;;;64.47;41.53;;;7.90;99.90;;;;;;5087008;28;20047;-79
2021/12/14 07:16:02;;;;;;;67.15;41.05;;;7.80;99.90;;;;;;5083368;28;20071;-80
2021/12/14 07:18:29;;;;;;;65.47;40.75;;;7.90;99.90;;;;;;5055951;28;20086;-78
2021/12/14 07:20:56;;;;;;;63.13;39.30;;;7.90;99.90;;;;;;5084036;28;20051;-80
2021/12/14 07:23:25;;;;;;;61.42;39.65;;;7.90;99.90;;;;;;5070932;28;20067;-81
2021/12/14 07:25:56;;;;;;;63.65;40.42;;;7.90;99.90;;;;;;5071761;28;20048;-80
2021/12/14 07:28:22;;;;;;;66.60;43.83;;;7.90;99.90;;;;;;5089025;28;20098;-81
2021/12/14 07:30:53;;;;;;;63.55;41.45;;;7.90;99.90;;;;;;5079138;28;20123;-81
2021/12/14 07:33:22;;;;;;;60.95;40.03;;;7.90;99.90;;;;;;5081374;28;20039;-83
2021/12/14 07:35:57;;;;;;;63.90;41.05;;;8.00;99.90;;;;;;5072351;28;20040;-85
2021/12/14 07:38:29;;;;;;;55.38;38.30;;;7.90;99.90;;;;;;5056691;28;20076;-86
2021/12/14 07:41:01;;;;;;;60.55;37.92;;;8.00;99.90;;;;;;5074287;28;20044;-80
2021/12/14 07:43:31;;;;;;;66.50;41.28;;;8.00;99.90;;;;;;5065983;28;20074;-83
2021/12/14 07:45:58;;;;;;;71.78;42.85;;;7.90;99.90;;;;;;5081048;28;20044;-85
2021/12/14 07:48:42;;;;;;;66.70;41.70;;;8.00;99.90;;;;;;5091477;28;20040;-85
2021/12/14 07:51:08;;;;;;;67.45;41.97;;;8.00;99.90;;;;;;5084128;28;20118;-84
2021/12/14 07:53:50;;;;;;;64.78;38.17;;;8.00;99.90;;;;;;5068672;28;20036;-83
2021/12/14 07:56:28;;;;;;;69.18;41.88;;;7.90;99.90;;;;;;5089442;28;20048;-83
2021/12/14 07:58:54;;;;;;;67.15;39.25;;;8.00;99.90;;;;;;5039116;28;20051;-78
2021/12/14 08:01:20;;;;;;;75.45;41.25;;;8.00;99.90;;;;;;5066399;28;20052;-84
2021/12/14 08:03:45;;;;;;;66.03;39.20;;;8.00;99.90;;;;;;5083143;28;20052;-84
2021/12/14 08:06:14;;;;;;;72.13;40.92;;;8.00;99.90;;;;;;5072392;28;20478;-84
2021/12/14 08:08:44;;;;;;;58.60;36.85;;;8.10;99.90;;;;;;5088924;28;20044;-84
2021/12/14 08:14:01;;;;;;;76.68;42.70;;;8.00;99.90;;;;;;5079580;28;20060;-86
2021/12/14 08:16:57;;;;;;;69.15;39.97;;;8.10;99.90;;;;;;5065653;28;20033;-86
2021/12/14 08:19:25;;;;;;;67.75;38.88;;;8.10;99.90;;;;;;5060780;28;20140;-85
2021/12/14 08:21:51;;;;;;;63.45;39.35;;;8.10;99.90;;;;;;5051807;28;20193;-85
2021/12/14 08:24:17;;;;;;;69.43;41.03;;;8.00;99.90;;;;;;5068177;28;20538;-85
2021/12/14 08:26:55;;;;;;;62.00;37.90;;;8.10;99.90;;;;;;5080783;28;20064;-84
2021/12/14 08:29:29;;;;;;;62.97;39.15;;;8.20;99.90;;;;;;5052184;28;20052;-86
2021/12/14 08:32:11;;;;;;;57.15;36.97;;;8.10;99.90;;;;;;5056841;28;20494;-86
2021/12/14 08:34:43;;;;;;;59.05;38.75;;;8.10;99.90;;;;;;5070597;28;20044;-87
2021/12/14 08:37:13;;;;;;;60.95;39.67;;;8.20;99.90;;;;;;5042012;28;20044;-85
2021/12/14 08:39:53;;;;;;;61.45;34.03;;;8.10;99.90;;;;;;5065969;28;20052;-86
2021/12/14 08:42:34;;;;;;;63.27;38.17;;;8.20;99.90;;;;;;5054562;28;20040;-83
2021/12/14 08:45:24;;;;;;;63.60;38.47;;;8.20;99.90;;;;;;5089637;28;20374;-83
2021/12/14 08:47:52;;;;;;;55.83;37.23;;;8.20;99.90;;;;;;5071519;28;20449;-85
2021/12/14 08:50:18;;;;;;;58.75;37.40;;;8.20;99.90;;;;;;5085871;28;20441;-84
2021/12/14 08:52:44;;;;;;;54.60;36.40;;;8.30;99.90;;;;;;5056214;28;20123;-84
2021/12/14 08:55:17;;;;;;;60.35;36.47;;;8.30;99.90;;;;;;5058743;28;20040;-85
2021/12/14 08:57:44;;;;;;;66.88;39.47;;;8.30;99.90;;;;;;5040302;28;20110;-80
2021/12/14 09:00:19;;;;;;;56.58;34.83;;;8.30;99.90;;;;;;5082765;28;20097;-84
2021/12/14 09:02:46;;;;;;;64.60;37.78;;;8.20;99.90;;;;;;5071328;28;20402;-84
2021/12/14 09:05:13;;;;;;;62.90;36.72;;;8.30;99.90;;;;;;5097113;28;20074;-85
2021/12/14 09:07:39;;;;;;;66.10;39.17;;;8.20;99.90;;;;;;5102308;28;20375;-87
2021/12/14 09:10:09;;;;;;;64.38;35.80;;;8.20;99.90;;;;;;5094492;28;20040;-86
2021/12/14 09:12:39;;;;;;;66.32;38.17;;;8.20;99.90;;;;;;5055778;28;20055;-87
2021/12/14 09:15:11;;;;;;;58.72;34.40;;;8.30;99.90;;;;;;5073029;28;20067;-86
2021/12/14 09:17:37;;;;;;;63.08;39.88;;;8.30;99.90;;;;;;5072886;28;20116;-86
2021/12/14 09:20:15;;;;;;;72.97;40.58;;;8.30;99.90;;;;;;5058463;28;20492;-86
2021/12/14 09:22:45;;;;;;;68.72;40.47;;;8.30;99.90;;;;;;5068958;28;20114;-87
2021/12/14 09:25:14;;;;;;;74.53;39.95;;;8.30;99.90;;;;;;5056906;28;20059;-85
2021/12/14 09:27:41;;;;;;;69.13;40.20;;;8.30;99.90;;;;;;5076725;28;20054;-87
2021/12/14 09:30:10;;;;;;;66.35;41.03;;;8.30;99.90;;;;;;5075919;28;20044;-87
2021/12/14 09:32:37;;;;;;;65.00;39.33;;;8.20;99.90;;;;;;5073779;28;20068;-86
2021/12/14 09:35:06;;;;;;;68.47;39.17;;;8.30;99.90;;;;;;5111033;28;20099;-77
2021/12/14 09:37:32;;;;;;;66.82;37.67;;;8.20;99.90;;;;;;5072838;28;20403;-85
2021/12/14 09:40:08;;;;;;;63.13;37.85;;;8.30;99.90;;;;;;5064297;28;20044;-87
2021/12/14 09:42:35;;;;;;;68.13;38.67;;;8.20;99.90;;;;;;5082166;28;20051;-86
2021/12/14 09:45:25;;;;;;;69.95;40.67;;;8.30;99.90;;;;;;5087240;28;20596;-85
2021/12/14 09:47:50;;;;;;;70.20;39.40;;;8.40;99.90;;;;;;5060509;28;20040;-86
2021/12/14 09:50:27;;;;;;;68.05;39.30;;;8.40;99.90;;;;;;5071648;28;20045;-85
2021/12/14 09:52:53;;;;;;;65.63;38.80;;;8.40;99.90;;;;;;5079729;28;20101;-86
2021/12/14 09:55:23;;;;;;;65.43;37.65;;;8.40;99.90;;;;;;5083209;28;20036;-85
2021/12/14 09:57:56;;;;;;;69.47;37.97;;;8.40;99.90;;;;;;5084082;28;20051;-86
2021/12/14 10:00:28;;;;;;;66.53;38.80;;;8.30;99.90;;;;;;5054806;28;20044;-85
2021/12/14 10:02:56;;;;;;;61.67;33.75;;;8.30;99.90;;;;;;5072860;28;20508;-82
2021/12/14 10:05:30;;;;;;;62.47;37.60;;;8.40;99.90;;;;;;5072872;28;20183;-86
2021/12/14 10:07:59;;;;;;;73.90;38.17;;;8.30;99.90;;;;;;5064044;28;20055;-84
2021/12/14 10:10:25;;;;;;;69.38;39.22;;;8.40;99.90;;;;;;5068326;28;20044;-86
2021/12/14 10:12:55;;;;;;;69.32;38.05;;;8.40;99.90;;;;;;5082552;28;20076;-86
2021/12/14 10:15:23;;;;;;;64.07;34.90;;;8.30;99.90;;;;;;5060519;28;20052;-84
2021/12/14 10:17:50;;;;;;;63.05;34.17;;;8.40;99.90;;;;;;5065679;28;20051;-84
2021/12/14 10:20:21;;;;;;;59.03;33.20;;;8.40;99.90;;;;;;5050909;28;20083;-84
2021/12/14 10:22:51;;;;;;;66.80;39.08;;;8.40;99.90;;;;;;5044349;28;20044;-84
2021/12/14 10:25:20;;;;;;;61.03;33.85;;;8.30;99.90;;;;;;5061149;28;20127;-82
2021/12/14 10:27:46;;;;;;;59.83;34.50;;;8.40;99.90;;;;;;5065928;28;20040;-84
2021/12/14 10:30:19;;;;;;;61.92;32.90;;;8.50;99.90;;;;;;5095107;28;20059;-74
2021/12/14 10:32:46;;;;;;;66.30;35.13;;;8.40;99.90;;;;;;5087574;28;20033;-85
2021/12/14 10:35:21;;;;;;;75.88;36.63;;;8.50;99.90;;;;;;5060206;28;20506;-83
2021/12/14 10:37:57;;;;;;;66.40;35.50;;;8.50;99.90;;;;;;5053911;28;20112;-83
2021/12/14 10:43:18;;;;;;;63.95;35.15;;;8.40;99.90;;;;;;5056204;28;20056;-83
2021/12/14 10:45:54;;;;;;;59.13;33.22;;;8.50;99.90;;;;;;5057061;28;20040;-80
2021/12/14 10:48:26;;;;;;;62.20;33.20;;;8.50;99.90;;;;;;5043165;28;20051;-84
2021/12/14 10:50:56;;;;;;;58.97;31.25;;;8.50;99.90;;;;;;5046709;28;20040;-75
2021/12/14 10:53:24;;;;;;;60.53;34.95;;;8.60;99.90;;;;;;5054627;28;20048;-82
2021/12/14 10:55:59;;;;;;;61.67;32.17;;;8.50;99.90;;;;;;5035246;28;20037;-82
2021/12/14 10:58:28;;;;;;;58.47;33.53;;;8.50;99.90;;;;;;5052096;28;20045;-82
2021/12/14 11:01:01;;;;;;;91.07;31.80;;;8.50;99.90;;;;;;5056187;28;20149;-76
2021/12/14 11:03:30;;;;;;;60.58;30.75;;;8.60;99.90;;;;;;5058532;28;20320;-81
2021/12/14 11:05:59;;;;;;;57.28;31.88;;;8.70;99.90;;;;;;5061277;28;20498;-80
2021/12/14 11:11:00;;;;;;;54.25;29.52;;;8.70;99.90;;;;;;5064239;28;20506;-81
2021/12/14 11:13:26;;;;;;;53.70;29.15;;;8.70;99.90;;;;;;5079259;28;20070;-81
2021/12/14 11:15:54;;;;;;;53.08;26.83;;;8.70;99.90;;;;;;5075355;28;20044;-81
2021/12/14 11:18:26;;;;;;;57.33;30.65;;;8.70;99.90;;;;;;5070675;28;20055;-82
2021/12/14 11:21:02;;;;;;;53.40;26.27;;;8.70;99.90;;;;;;5055249;28;20114;-81
2021/12/14 11:23:38;;;;;;;48.50;27.33;;;8.70;99.90;;;;;;5079146;28;20075;-82
2021/12/14 11:26:09;;;;;;;48.10;25.75;;;8.70;99.90;;;;;;5096770;28;20555;-82
2021/12/14 11:28:49;;;;;;;47.13;25.33;;;8.80;99.90;;;;;;5063231;28;20039;-81
2021/12/14 11:31:32;;;;;;;57.25;29.45;;;8.70;99.90;;;;;;5067580;28;20147;-75
2021/12/14 11:34:05;;;;;;;51.10;26.60;;;8.80;99.90;;;;;;5083523;28;20461;-87
2021/12/14 11:36:36;;;;;;;49.85;27.20;;;8.70;99.90;;;;;;5076058;28;20044;-84
2021/12/14 11:39:12;;;;;;;56.70;25.83;;;8.70;99.90;;;;;;5091092;28;20425;-78
2021/12/14 11:41:44;;;;;;;57.33;27.75;;;8.70;99.90;;;;;;5082853;28;20126;-86
2021/12/14 11:44:33;;;;;;;49.20;25.77;;;8.70;99.90;;;;;;5056417;28;20068;-88
2021/12/14 11:47:40;;;;;;;49.65;27.77;;;8.80;99.90;;;;;;5039987;28;20505;-87
2021/12/14 11:50:02;;;;;;;54.38;28.60;;;8.80;99.90;;;;;;5094464;28;20048;-89
2021/12/14 11:52:40;;;;;;;51.63;28.23;;;8.80;99.90;;;;;;5070624;28;20849;-89
2021/12/14 11:55:33;;;;;;;46.83;23.63;;;8.80;99.90;;;;;;5084928;28;20076;-89
2021/12/14 11:58:25;;;;;;;47.42;26.35;;;8.80;99.90;;;;;;5057190;28;20169;-89
2021/12/14 12:01:14;;;;;;;48.42;25.27;;;8.80;99.90;;;;;;5086096;28;20066;-88
2021/12/14 12:03:46;;;;;;;54.95;26.95;;;8.80;99.90;;;;;;5093412;28;20079;-91
2021/12/14 12:06:44;;;;;;;46.80;23.77;;;8.90;99.90;;;;;;5101518;28;20071;-86
2021/12/14 12:09:29;;;;;;;46.40;24.23;;;8.90;99.90;;;;;;5082046;28;20122;-86
2021/12/14 12:12:03;;;;;;;47.08;24.13;;;8.90;99.90;;;;;;5090569;28;20055;-88
2021/12/14 12:14:50;;;;;;;41.75;21.77;;;8.90;99.90;;;;;;5098363;28;20077;-89
2021/12/14 12:17:22;;;;;;;36.97;21.08;;;9.00;99.90;;;;;;5089773;28;20060;-85
2021/12/14 12:20:02;;;;;;;35.55;21.60;;;9.00;99.90;;;;;;5082330;28;20395;-84
2021/12/14 12:22:36;;;;;;;;;;;9.00;99.90;;;;;;5072478;28;20052;-84
2021/12/14 12:25:09;;;;;;;35.83;20.10;;;8.90;99.90;;;;;;5073393;28;20006;-76
2021/12/14 12:27:38;;;;;;;38.15;21.60;;;8.90;99.90;;;;;;5112260;28;20086;-84
2021/12/14 12:30:43;;;;;;;31.15;17.67;;;8.90;99.90;;;;;;5096471;28;20067;-83
2021/12/14 12:33:18;;;;;;;32.20;19.13;;;9.00;99.90;;;;;;5065701;28;20059;-83
2021/12/14 12:35:50;;;;;;;40.47;21.63;;;8.90;99.90;;;;;;5059208;28;20379;-84
2021/12/14 12:38:33;;;;;;;39.03;21.60;;;9.00;99.90;;;;;;5081881;28;20122;-83
2021/12/14 12:41:26;;;;;;;43.22;21.98;;;9.00;99.90;;;;;;5075772;28;20402;-83
2021/12/14 12:44:10;;;;;;;43.50;23.77;;;9.00;99.90;;;;;;5086543;28;20047;-83
2021/12/14 12:46:56;;;;;;;50.28;23.75;;;9.00;99.90;;;;;;5093145;28;20047;-84
2021/12/14 12:49:31;;;;;;;53.15;24.40;;;9.00;99.90;;;;;;5087942;28;20048;-84
2021/12/14 12:52:20;;;;;;;41.15;23.45;;;9.10;99.90;;;;;;5071723;28;20111;-83
2021/12/14 12:54:45;;;;;;;50.13;25.63;;;9.00;99.90;;;;;;5083118;28;20037;-83
2021/12/14 12:57:36;;;;;;;44.72;22.98;;;9.00;99.90;;;;;;5083724;28;20049;-83
2021/12/14 13:00:15;;;;;;;40.88;22.25;;;9.10;99.90;;;;;;5100597;28;20055;-78
2021/12/14 13:02:43;;;;;;;41.90;21.90;;;9.10;99.90;;;;;;5086478;28;20127;-86
2021/12/14 13:05:31;;;;;;;43.85;24.65;;;9.00;99.90;;;;;;5091513;28;20044;-85
2021/12/14 13:08:33;;;;;;;39.83;21.10;;;9.10;99.90;;;;;;5097828;28;20551;-86
2021/12/14 13:11:04;;;;;;;43.08;21.52;;;9.10;99.90;;;;;;5081696;28;20052;-85
2021/12/14 13:13:40;;;;;;;37.67;21.63;;;9.20;99.90;;;;;;5092137;28;20043;-85
2021/12/14 13:16:20;;;;;;;37.80;20.85;;;9.10;99.90;;;;;;5087582;28;20051;-87
2021/12/14 13:19:11;;;;;;;40.88;21.75;;;9.20;99.90;;;;;;5070161;28;20091;-85
2021/12/14 13:21:53;;;;;;;43.72;20.70;;;9.10;99.90;;;;;;5064988;28;20411;-84
2021/12/14 13:24:29;;;;;;;37.35;21.10;;;9.10;99.90;;;;;;5056526;28;20044;-85
2021/12/14 13:27:00;;;;;;;31.02;20.23;;;9.10;99.90;;;;;;5088637;28;20036;-84
2021/12/14 13:29:51;;;;;;;37.05;20.95;;;9.00;99.90;;;;;;5074472;28;20047;-84
2021/12/14 13:32:16;;;;;;;29.15;17.10;;;9.10;99.90;;;;;;5059945;28;20066;-83
2021/12/14 13:34:46;;;;;;;31.02;17.40;;;9.10;99.90;;;;;;5075823;28;20039;-74
2021/12/14 13:37:17;;;;;;;39.07;21.63;;;9.20;99.90;;;;;;5101334;28;20040;-84
2021/12/14 13:39:43;;;;;;;32.85;17.58;;;9.10;99.90;;;;;;5081086;28;20048;-80